Time;durP1;ratioP1;P1;durP2;ratioP2;P2;SDS_P1;SDS_P2;PMS_P1;PMS_P2;Temp;Humidity;BMP_temperature;BMP_pressure;BME280_temperature;BME280_humidity;BME280_pressure;Samples;Min_cycle;Max_cycle;Signal;HPM_P1;HPM_P2
2023/07/03 00:02:06;;;;;;;;;;;14.20;99.90;;;;;;4958812;28;19929;-91
2023/07/03 00:04:35;;;;;;;;;;;14.30;99.90;;;;;;4963897;28;19980;-90
2023/07/03 00:07:02;;;;;;;;;;;14.20;99.90;;;;;;4943375;28;20001;-91
2023/07/03 00:09:28;;;;;;;;;;;14.20;99.90;;;;;;4943531;28;19922;-91
2023/07/03 00:11:53;;;;;;;;;;;14.20;99.90;;;;;;4942469;29;19961;-91
2023/07/03 00:14:19;;;;;;;;;;;14.20;99.90;;;;;;4959979;28;19918;-90
2023/07/03 00:16:44;;;;;;;;;;;14.10;99.90;;;;;;4943589;28;19914;-91
2023/07/03 00:19:13;;;;;;;;;;;14.10;99.90;;;;;;4965687;28;20003;-91
2023/07/03 00:21:46;;;;;;;;;;;14.00;99.90;;;;;;4946246;28;19922;-90
2023/07/03 00:24:15;;;;;;;;;;;14.00;99.90;;;;;;4971564;28;19914;-91
2023/07/03 00:26:41;;;;;;;;;;;14.30;99.90;;;;;;4962259;28;19914;-91
2023/07/03 00:32:37;;;;;;;;;;;14.20;99.90;;;;;;4983686;28;20388;-91
2023/07/03 00:35:03;;;;;;;;;;;14.10;99.90;;;;;;4949125;28;19986;-90
2023/07/03 00:37:29;;;;;;;;;;;14.00;99.90;;;;;;4970155;28;19914;-91
2023/07/03 00:39:58;;;;;;;;;;;13.80;99.90;;;;;;4956888;28;19921;-89
2023/07/03 00:42:28;;;;;;;;;;;13.60;99.90;;;;;;4954503;28;19918;-89
2023/07/03 00:44:54;;;;;;;;;;;13.50;99.90;;;;;;4951036;28;19914;-90
2023/07/03 00:47:21;;;;;;;;;;;13.30;99.90;;;;;;4946918;28;19914;-90
2023/07/03 00:49:47;;;;;;;;;;;13.10;99.90;;;;;;4970066;28;19914;-92
2023/07/03 00:52:31;;;;;;;;;;;13.00;99.90;;;;;;4968803;28;19921;-90
2023/07/03 00:54:57;;;;;;;;;;;13.20;99.90;;;;;;4958004;28;20091;-91
2023/07/03 00:57:25;;;;;;;;;;;13.30;99.90;;;;;;4969205;28;19915;-91
2023/07/03 00:59:51;;;;;;;;;;;13.40;99.90;;;;;;4966836;28;19920;-91
2023/07/03 01:02:19;;;;;;;;;;;13.40;99.90;;;;;;4968401;29;19906;-91
2023/07/03 01:04:54;;;;;;;;;;;13.40;99.90;;;;;;4956345;28;19901;-90
2023/07/03 01:07:31;;;;;;;;;;;13.30;99.90;;;;;;4942234;28;19914;-90
2023/07/03 01:10:04;;;;;;;;;;;13.20;99.90;;;;;;4966969;28;19977;-90
2023/07/03 01:12:30;;;;;;;;;;;13.20;99.90;;;;;;4945208;29;19924;-91
2023/07/03 01:14:59;;;;;;;;;;;13.10;99.90;;;;;;4951698;28;19915;-91
2023/07/03 01:17:58;;;;;;;;;;;12.90;99.90;;;;;;4955904;29;19922;-91
2023/07/03 01:20:52;;;;;;;;;;;12.80;99.90;;;;;;4965079;29;19936;-90
2023/07/03 01:23:26;;;;;;;;;;;12.70;99.90;;;;;;4956353;28;19981;-90
2023/07/03 01:25:53;;;;;;;;;;;12.70;99.90;;;;;;4971270;29;19921;-92
2023/07/03 01:28:20;;;;;;;;;;;12.70;99.90;;;;;;4950753;28;19895;-90
2023/07/03 01:30:47;;;;;;;;;;;12.90;99.90;;;;;;4948029;29;19914;-90
2023/07/03 01:33:17;;;;;;;;;;;12.90;99.90;;;;;;4950300;29;19950;-91
2023/07/03 01:35:45;;;;;;;;;;;13.00;99.90;;;;;;4958629;28;19960;-91
2023/07/03 01:38:10;;;;;;;;;;;13.10;99.90;;;;;;4951162;29;19915;-91
2023/07/03 01:40:36;;;;;;;;;;;13.20;99.90;;;;;;4964455;29;19922;-91
2023/07/03 01:43:03;;;;;;;;;;;13.20;99.90;;;;;;4958552;29;19914;-89
2023/07/03 01:45:42;;;;;;;;;;;13.20;99.90;;;;;;4956369;28;19918;-91
2023/07/03 01:48:09;;;;;;;;;;;13.40;99.90;;;;;;4968159;28;19981;-90
2023/07/03 01:50:36;;;;;;;;;;;13.60;99.90;;;;;;4949536;28;19969;-90
2023/07/03 01:53:09;;;;;;;;;;;13.60;99.90;;;;;;4960105;28;19918;-92
2023/07/03 01:56:03;;;;;;;;;;;13.70;99.90;;;;;;4956219;28;19918;-91
2023/07/03 01:58:32;;;;;;;;;;;13.90;99.90;;;;;;4942689;28;19914;-93
2023/07/03 02:01:04;;;;;;;;;;;13.90;99.90;;;;;;4958702;28;19914;-90
2023/07/03 02:03:42;;;;;;;;;;;13.90;99.90;;;;;;4954832;28;19923;-89
2023/07/03 02:06:14;;;;;;;;;;;14.10;99.90;;;;;;4964437;28;20339;-89
2023/07/03 02:08:41;;;;;;;;;;;14.10;99.90;;;;;;4971510;28;20032;-92
2023/07/03 02:11:18;;;;;;;;;;;14.20;99.90;;;;;;4974621;28;20286;-90
2023/07/03 02:13:47;;;;;;;;;;;14.30;99.90;;;;;;4951483;28;19941;-89
2023/07/03 02:16:15;;;;;;;;;;;14.40;99.90;;;;;;4956236;28;19961;-91
2023/07/03 02:18:51;;;;;;;;;;;14.50;99.90;;;;;;4958457;28;19918;-91
2023/07/03 02:21:18;;;;;;;;;;;14.50;99.90;;;;;;4971245;28;19914;-90
2023/07/03 02:23:48;;;;;;;;;;;14.60;99.90;;;;;;4948340;28;19946;-89
2023/07/03 02:26:15;;;;;;;;;;;14.60;99.90;;;;;;4976085;28;19910;-90
2023/07/03 02:28:41;;;;;;;;;;;14.70;99.90;;;;;;4976295;28;19921;-91
2023/07/03 02:31:08;;;;;;;;;;;14.80;99.90;;;;;;4952206;28;19982;-90
2023/07/03 02:33:34;;;;;;;;;;;14.80;99.90;;;;;;4953234;28;19925;-89
2023/07/03 02:36:02;;;;;;;;;;;14.80;99.90;;;;;;4952912;28;19945;-91
2023/07/03 02:38:28;;;;;;;;;;;14.80;99.90;;;;;;4951191;28;19921;-90
2023/07/03 02:40:54;;;;;;;;;;;14.70;99.90;;;;;;4947400;28;19910;-89
2023/07/03 02:43:19;;;;;;;;;;;14.80;99.90;;;;;;4966929;28;19980;-90
2023/07/03 02:45:46;;;;;;;;;;;14.70;99.90;;;;;;4948259;28;19914;-90
2023/07/03 02:48:13;;;;;;;;;;;14.70;99.90;;;;;;4967539;28;19914;-91
2023/07/03 02:50:43;;;;;;;;;;;14.70;99.90;;;;;;4968534;28;19918;-90
2023/07/03 02:53:09;;;;;;;;;;;14.70;99.90;;;;;;4968505;28;20064;-89
2023/07/03 02:55:36;;;;;;;;;;;14.70;99.90;;;;;;4945017;28;19914;-89
2023/07/03 02:58:02;;;;;;;;;;;14.70;99.90;;;;;;4967603;28;19965;-90
2023/07/03 03:00:31;;;;;;;;;;;14.70;99.90;;;;;;4944907;28;19922;-90
2023/07/03 03:02:59;;;;;;;;;;;14.70;99.90;;;;;;4942961;28;19954;-89
2023/07/03 03:05:25;;;;;;;;;;;14.60;99.90;;;;;;4963763;28;20008;-89
2023/07/03 03:07:51;;;;;;;;;;;14.60;99.90;;;;;;4945343;28;19973;-90
2023/07/03 03:10:17;;;;;;;;;;;14.60;99.90;;;;;;4950537;28;19904;-88
2023/07/03 03:12:43;;;;;;;;;;;14.60;99.90;;;;;;4967694;28;19918;-89
2023/07/03 03:15:09;;;;;;;;;;;14.60;99.90;;;;;;4950371;28;19914;-90
2023/07/03 03:17:35;;;;;;;;;;;14.60;99.90;;;;;;4968325;28;19968;-89
2023/07/03 03:20:01;;;;;;;;;;;14.60;99.90;;;;;;4948823;28;19915;-89
2023/07/03 03:22:26;;;;;;;;;;;14.60;99.90;;;;;;4968112;28;19978;-90
2023/07/03 03:24:52;;;;;;;;;;;14.60;99.90;;;;;;4936915;28;20371;-86
2023/07/03 03:27:18;;;;;;;;;;;14.60;99.90;;;;;;4946454;28;19924;-87
2023/07/03 03:29:44;;;;;;;;;;;14.70;99.90;;;;;;4936886;28;19921;-87
2023/07/03 03:32:10;;;;;;;;;;;14.60;99.90;;;;;;4937272;29;19915;-87
2023/07/03 03:34:36;;;;;;;;;;;14.60;99.90;;;;;;4957489;28;20378;-87
2023/07/03 03:37:02;;;;;;;;;;;14.60;99.90;;;;;;4955609;28;19976;-87
2023/07/03 03:39:28;;;;;;;;;;;14.60;99.90;;;;;;4935454;28;19925;-86
2023/07/03 03:41:55;;;;;;;;;;;14.60;99.90;;;;;;4935408;29;19919;-87
2023/07/03 03:44:21;;;;;;;;;;;14.60;99.90;;;;;;4955235;28;19976;-86
2023/07/03 03:46:53;;;;;;;;;;;14.60;99.90;;;;;;4959224;28;19957;-87
2023/07/03 03:49:19;;;;;;;;;;;14.60;99.90;;;;;;4937947;29;19953;-86
2023/07/03 03:51:45;;;;;;;;;;;14.60;99.90;;;;;;4966044;28;20326;-86
2023/07/03 03:54:12;;;;;;;;;;;14.60;99.90;;;;;;4952973;28;19926;-86
2023/07/03 03:56:38;;;;;;;;;;;14.60;99.90;;;;;;4956128;28;20282;-87
2023/07/03 03:59:04;;;;;;;;;;;14.60;99.90;;;;;;4935798;29;19921;-87
2023/07/03 04:01:30;;;;;;;;;;;14.60;99.90;;;;;;4937824;28;19918;-87
2023/07/03 04:03:55;;;;;;;;;;;14.60;99.90;;;;;;4953927;28;19911;-86
2023/07/03 04:06:21;;;;;;;;;;;14.60;99.90;;;;;;4957790;28;19921;-87
2023/07/03 04:08:46;;;;;;;;;;;14.60;99.90;;;;;;4951089;28;19919;-87
2023/07/03 04:11:12;;;;;;;;;;;14.60;99.90;;;;;;4935513;29;20366;-86
2023/07/03 04:13:38;;;;;;;;;;;14.70;99.90;;;;;;4964613;28;19957;-87
2023/07/03 04:16:04;;;;;;;;;;;14.70;99.90;;;;;;4952879;28;19914;-86
2023/07/03 04:18:30;;;;;;;;;;;14.60;99.90;;;;;;4942111;28;19931;-86
2023/07/03 04:20:56;;;;;;;;;;;14.70;99.90;;;;;;4917206;29;19957;-87
2023/07/03 04:23:22;;;;;;;;;;;14.70;99.90;;;;;;4955171;28;19914;-87
2023/07/03 04:25:48;;;;;;;;;;;14.70;99.90;;;;;;4958020;28;20000;-87
2023/07/03 04:28:15;;;;;;;;;;;14.70;99.90;;;;;;4940072;28;19925;-88
2023/07/03 04:30:41;;;;;;;;;;;14.70;99.90;;;;;;4941667;28;20430;-87
2023/07/03 04:33:31;;;;;;;;;;;14.70;99.90;;;;;;4957354;28;19922;-87
2023/07/03 04:35:56;;;;;;;;;;;14.80;99.90;;;;;;4949647;28;19914;-87
2023/07/03 04:38:23;;;;;;;;;;;14.90;99.90;;;;;;4930967;29;19945;-87
2023/07/03 04:40:53;;;;;;;;;;;14.90;99.90;;;;;;4954104;28;19910;-87
2023/07/03 04:43:19;;;;;;;;;;;14.90;99.90;;;;;;4957326;28;19914;-87
2023/07/03 04:45:46;;;;;;;;;;;15.00;99.90;;;;;;4936558;28;19969;-88
2023/07/03 04:48:11;;;;;;;;;;;15.00;99.90;;;;;;4941843;28;19914;-87
2023/07/03 04:50:37;;;;;;;;;;;15.10;99.90;;;;;;4952597;28;20421;-87
2023/07/03 04:53:05;;;;;;;;;;;15.20;99.90;;;;;;4934621;29;20005;-87
2023/07/03 04:55:32;;;;;;;;;;;15.20;99.90;;;;;;4954323;28;19910;-87
2023/07/03 04:57:59;;;;;;;;;;;15.30;99.90;;;;;;4961356;28;19980;-87
2023/07/03 05:00:27;;;;;;;;;;;15.30;99.90;;;;;;4932299;28;20289;-87
2023/07/03 05:02:56;;;;;;;;;;;15.30;99.90;;;;;;4957620;28;19922;-87
2023/07/03 05:05:21;;;;;;;;;;;15.30;99.90;;;;;;4939887;28;19970;-87
2023/07/03 05:07:56;;;;;;;;;;;15.40;99.90;;;;;;4958213;28;19961;-87
2023/07/03 05:10:22;;;;;;;;;;;15.40;99.90;;;;;;4952394;28;19922;-87
2023/07/03 05:13:16;;;;;;;;;;;15.40;99.90;;;;;;4938755;28;19922;-87
2023/07/03 05:15:41;;;;;;;;;;;15.50;99.90;;;;;;4949897;28;19919;-87
2023/07/03 05:18:07;;;;;;;;;;;15.50;99.90;;;;;;4938283;28;20744;-87
2023/07/03 05:20:32;;;;;;;;;;;15.50;99.90;;;;;;4941926;28;19997;-87
2023/07/03 05:22:58;;;;;;;;;;;15.50;99.90;;;;;;4957693;28;19918;-87
2023/07/03 05:25:30;;;;;;;;;;;15.50;99.90;;;;;;4958189;28;19941;-87
2023/07/03 05:27:55;;;;;;;;;;;15.50;99.90;;;;;;4954783;28;20693;-87
2023/07/03 05:30:21;;;;;;;;;;;15.50;99.90;;;;;;4958429;28;19914;-87
2023/07/03 05:36:15;;;;;;;;;;;15.70;99.90;;;;;;4971221;28;20003;-87
2023/07/03 05:38:56;;;;;;;;;;;15.80;99.90;;;;;;4941881;28;19914;-87
2023/07/03 05:41:23;;;;;;;;;;;15.90;99.90;;;;;;4943000;28;19922;-87
2023/07/03 05:43:48;;;;;;;;;;;16.10;99.90;;;;;;4929287;28;19918;-87
2023/07/03 05:46:14;;;;;;;;;;;16.20;99.90;;;;;;4955920;28;19925;-87
2023/07/03 05:48:39;;;;;;;;;;;16.40;99.90;;;;;;4939587;28;19957;-87
2023/07/03 05:51:05;;;;;;;;;;;16.60;99.90;;;;;;4940987;28;19918;-87
2023/07/03 05:53:31;;;;;;;;;;;16.60;99.90;;;;;;4955603;28;19919;-88
2023/07/03 05:55:57;;;;;;;;;;;16.70;99.90;;;;;;4952134;28;19914;-87
2023/07/03 05:58:23;;;;;;;;;;;16.70;99.90;;;;;;4941068;28;19922;-88
2023/07/03 06:00:49;;;;;;;;;;;16.80;99.90;;;;;;4937423;28;20624;-88
2023/07/03 06:03:15;;;;;;;;;;;16.80;99.90;;;;;;4938087;29;20009;-87
2023/07/03 06:05:41;;;;;;;;;;;16.80;99.90;;;;;;4955311;28;20502;-88
2023/07/03 06:08:07;;;;;;;;;;;16.70;99.90;;;;;;4945381;28;19953;-87
2023/07/03 06:10:32;;;;;;;;;;;16.60;99.90;;;;;;4936833;29;19965;-87
2023/07/03 06:12:58;;;;;;;;;;;16.50;99.90;;;;;;4951398;28;19921;-87
2023/07/03 06:15:24;;;;;;;;;;;16.40;99.90;;;;;;4950212;29;19914;-87
2023/07/03 06:17:50;;;;;;;;;;;16.40;99.90;;;;;;4936296;28;19921;-88
2023/07/03 06:20:16;;;;;;;;;;;16.50;99.90;;;;;;4955995;28;20261;-87
2023/07/03 06:22:42;;;;;;;;;;;16.60;99.90;;;;;;4957746;28;20020;-87
2023/07/03 06:25:08;;;;;;;;;;;16.80;99.90;;;;;;4957847;28;19921;-87
2023/07/03 06:27:34;;;;;;;;;;;16.90;99.90;;;;;;4954625;28;19911;-87
2023/07/03 06:29:59;;;;;;;;;;;16.70;99.90;;;;;;4932475;28;20179;-87
2023/07/03 06:32:25;;;;;;;;;;;16.60;99.90;;;;;;4933250;29;20687;-88
2023/07/03 06:34:51;;;;;;;;;;;16.60;99.90;;;;;;4934151;28;20397;-87
2023/07/03 06:37:17;;;;;;;;;;;16.50;99.90;;;;;;4940168;28;19914;-86
2023/07/03 06:39:42;;;;;;;;;;;16.40;99.90;;;;;;4946693;28;19919;-87
2023/07/03 06:42:10;;;;;;;;;;;16.30;99.90;;;;;;4940638;28;19925;-87
2023/07/03 06:44:40;;;;;;;;;;;16.30;99.90;;;;;;4948443;28;20606;-88
2023/07/03 06:47:06;;;;;;;;;;;16.30;99.90;;;;;;4924521;28;19918;-88
2023/07/03 06:49:32;;;;;;;;;;;16.20;99.90;;;;;;4944276;28;20530;-86
2023/07/03 06:51:58;;;;;;;;;;;16.30;99.90;;;;;;4942966;28;19914;-87
2023/07/03 06:54:24;;;;;;;;;;;16.30;99.90;;;;;;4917590;28;20526;-88
2023/07/03 06:56:50;;;;;;;;;;;16.30;99.90;;;;;;4937683;28;19922;-88
2023/07/03 06:59:16;;;;;;;;;;;16.30;99.90;;;;;;4949470;28;20260;-88
2023/07/03 07:01:42;;;;;;;;;;;16.50;99.90;;;;;;4944120;28;19922;-87
2023/07/03 07:04:08;;;;;;;;;;;16.50;99.90;;;;;;4937775;28;19922;-87
2023/07/03 07:06:34;;;;;;;;;;;16.80;99.90;;;;;;4941715;28;20433;-87
2023/07/03 07:09:00;;;;;;;;;;;16.80;99.90;;;;;;4938011;28;19922;-87
2023/07/03 07:11:30;;;;;;;;;;;16.80;99.90;;;;;;4938126;29;19942;-88
2023/07/03 07:13:57;;;;;;;;;;;16.70;99.90;;;;;;4954857;28;19949;-87
2023/07/03 07:16:24;;;;;;;;;;;16.90;99.90;;;;;;4942936;29;20430;-87
2023/07/03 07:18:51;;;;;;;;;;;17.00;99.90;;;;;;4952189;28;19952;-87
2023/07/03 07:21:17;;;;;;;;;;;17.00;99.90;;;;;;4935634;28;19911;-87
2023/07/03 07:23:45;;;;;;;;;;;17.10;99.90;;;;;;4953861;28;19922;-87
2023/07/03 07:26:11;;;;;;;;;;;17.10;99.90;;;;;;4933557;28;19914;-86
2023/07/03 07:28:36;;;;;;;;;;;17.10;99.90;;;;;;4942471;28;19921;-85
2023/07/03 07:31:02;;;;;;;;;;;17.10;99.90;;;;;;4948219;28;19914;-86
2023/07/03 07:33:28;;;;;;;;;;;17.50;99.90;;;;;;4953231;28;19942;-87
2023/07/03 07:35:54;;;;;;;;;;;17.70;99.90;;;;;;4951724;28;19922;-88
2023/07/03 07:38:21;;;;;;;;;;;17.60;99.90;;;;;;4926829;28;19965;-88
2023/07/03 07:40:48;;;;;;;;;;;17.50;99.90;;;;;;4944775;28;19915;-87
2023/07/03 07:43:14;;;;;;;;;;;17.30;99.90;;;;;;4929652;28;19950;-87
2023/07/03 07:45:39;;;;;;;;;;;17.20;99.90;;;;;;4969399;28;19949;-87
2023/07/03 07:48:05;;;;;;;;;;;17.10;99.90;;;;;;4951395;28;19922;-88
2023/07/03 07:50:37;;;;;;;;;;;17.40;99.90;;;;;;4949098;28;19918;-87
2023/07/03 07:53:03;;;;;;;;;;;17.40;99.90;;;;;;4929622;28;19930;-88
2023/07/03 07:55:28;;;;;;;;;;;17.20;99.90;;;;;;4954448;28;19917;-88
2023/07/03 07:57:54;;;;;;;;;;;17.20;99.90;;;;;;4957033;28;20017;-87
2023/07/03 08:00:20;;;;;;;;;;;17.50;99.90;;;;;;4934929;28;20024;-87
2023/07/03 08:02:46;;;;;;;;;;;17.70;99.90;;;;;;4938314;28;19915;-87
2023/07/03 08:05:12;;;;;;;;;;;18.10;99.90;;;;;;4930459;28;20351;-87
2023/07/03 08:07:38;;;;;;;;;;;18.00;99.90;;;;;;4923818;28;20054;-88
2023/07/03 08:10:04;;;;;;;;;;;18.60;99.90;;;;;;4944950;28;19918;-86
2023/07/03 08:12:30;;;;;;;;;;;19.50;99.90;;;;;;4946384;28;19987;-88
2023/07/03 08:14:56;;;;;;;;;;;19.60;99.90;;;;;;4941184;28;19944;-87
2023/07/03 08:17:21;;;;;;;;;;;19.50;99.90;;;;;;4943136;28;19914;-88
2023/07/03 08:19:47;;;;;;;;;;;19.50;99.90;;;;;;4941859;28;20421;-87
2023/07/03 08:22:12;;;;;;;;;;;18.90;99.90;;;;;;4934156;28;19914;-88
2023/07/03 08:24:38;;;;;;;;;;;19.20;99.90;;;;;;4952031;28;19949;-88
2023/07/03 08:27:04;;;;;;;;;;;19.70;99.90;;;;;;4958548;28;19929;-87
2023/07/03 08:29:29;;;;;;;;;;;19.10;99.90;;;;;;4938742;28;19953;-87
2023/07/03 08:31:55;;;;;;;;;;;18.90;99.90;;;;;;4934527;28;19918;-87
2023/07/03 08:34:20;;;;;;;;;;;19.20;99.90;;;;;;4957616;28;19922;-87
2023/07/03 08:36:46;;;;;;;;;;;19.50;99.90;;;;;;4950244;28;19915;-87
2023/07/03 08:39:12;;;;;;;;;;;19.80;99.90;;;;;;4952279;28;19918;-87
2023/07/03 08:41:43;;;;;;;;;;;20.50;99.90;;;;;;4941105;28;19914;-88
2023/07/03 08:44:09;;;;;;;;;;;20.50;99.90;;;;;;4941761;28;19924;-88
2023/07/03 08:46:35;;;;;;;;;;;20.30;99.90;;;;;;4939745;28;20004;-89
2023/07/03 08:49:04;;;;;;;;;;;20.10;99.90;;;;;;4941760;28;19922;-87
2023/07/03 08:51:30;;;;;;;;;;;20.10;99.90;;;;;;4951308;28;20495;-88
2023/07/03 08:53:59;;;;;;;;;;;20.00;99.90;;;;;;4937524;28;19925;-87
2023/07/03 08:56:28;;;;;;;;;;;19.70;99.90;;;;;;4932613;29;19922;-87
2023/07/03 08:58:55;;;;;;;;;;;19.70;99.90;;;;;;4937026;28;20389;-87
2023/07/03 09:01:46;;;;;;;;;;;19.10;99.90;;;;;;4957439;28;20352;-88
2023/07/03 09:04:30;;;;;;;;;;;18.90;99.90;;;;;;4936841;28;20248;-88
2023/07/03 09:07:25;;;;;;;;;;;19.00;99.90;;;;;;4957373;28;19918;-86
2023/07/03 09:10:09;;;;;;;;;;;19.00;99.90;;;;;;4930582;28;20341;-87
2023/07/03 09:12:38;;;;;;;;;;;19.00;99.90;;;;;;4950964;29;19918;-87
2023/07/03 09:15:11;;;;;;;;;;;19.10;99.90;;;;;;4939143;28;19954;-87
2023/07/03 09:18:08;;;;;;;;;;;19.90;99.90;;;;;;4941745;28;19914;-88
2023/07/03 09:20:34;;;;;;;;;;;20.20;99.90;;;;;;4944272;29;19964;-88
2023/07/03 09:23:20;;;;;;;;;;;19.50;99.90;;;;;;4940740;28;19919;-87
2023/07/03 09:25:58;;;;;;;;;;;18.90;99.90;;;;;;4938165;28;19923;-88
2023/07/03 09:28:24;;;;;;;;;;;18.70;99.90;;;;;;4932233;29;19915;-88
2023/07/03 09:30:53;;;;;;;;;;;19.60;99.90;;;;;;4935502;28;19918;-88
2023/07/03 09:33:19;;;;;;;;;;;19.80;99.90;;;;;;4938659;28;19945;-87
2023/07/03 09:35:45;;;;;;;;;;;19.50;99.90;;;;;;4924477;28;20736;-88
2023/07/03 09:38:12;;;;;;;;;;;19.40;99.90;;;;;;4963798;28;20358;-86
2023/07/03 09:40:40;;;;;;;;;;;19.50;99.90;;;;;;4952592;29;20008;-88
2023/07/03 09:43:13;;;;;;;;;;;19.90;99.90;;;;;;4951695;28;20379;-87
2023/07/03 09:45:39;;;;;;;;;;;20.30;99.90;;;;;;4929827;28;20547;-87
2023/07/03 09:48:10;;;;;;;;;;;19.50;99.90;;;;;;4953943;28;19922;-87
2023/07/03 09:51:01;;;;;;;;;;;19.30;99.90;;;;;;4936289;28;19914;-88
2023/07/03 09:53:27;;;;;;;;;;;20.30;99.90;;;;;;4945218;29;20367;-88
2023/07/03 09:55:54;;;;;;;;;;;21.10;99.90;;;;;;4947410;28;19918;-88
2023/07/03 09:58:22;;;;;;;;;;;21.00;99.90;;;;;;4936292;28;19917;-88
2023/07/03 10:00:49;;;;;;;;;;;20.40;99.90;;;;;;4953543;28;19961;-88
2023/07/03 10:03:26;;;;;;;;;;;19.90;99.90;;;;;;4928707;28;19922;-88
2023/07/03 10:06:03;;;;;;;;;;;19.20;99.90;;;;;;4944537;28;19947;-89
2023/07/03 10:08:29;;;;;;;;;;;18.40;99.90;;;;;;4938854;28;19914;-89
2023/07/03 10:10:58;;;;;;;;;;;18.20;99.90;;;;;;4953299;28;19919;-88
2023/07/03 10:13:26;;;;;;;;;;;17.80;99.90;;;;;;4933685;28;20318;-87
2023/07/03 10:15:54;;;;;;;;;;;17.80;99.90;;;;;;4932415;28;19921;-88
2023/07/03 10:18:23;;;;;;;;;;;18.10;99.90;;;;;;4930419;28;20001;-88
2023/07/03 10:20:50;;;;;;;;;;;18.60;99.90;;;;;;4926623;29;19930;-88
2023/07/03 10:23:29;;;;;;;;;;;19.30;99.90;;;;;;4934281;28;20516;-88
2023/07/03 10:26:04;;;;;;;;;;;20.00;99.90;;;;;;4926845;28;20008;-87
2023/07/03 10:29:07;;;;;;;;;;;20.60;99.90;;;;;;4956153;28;20294;-88
2023/07/03 10:31:37;;;;;;;;;;;20.80;99.90;;;;;;4979729;28;19961;-88
2023/07/03 10:34:11;;;;;;;;;;;20.40;99.90;;;;;;4924879;29;19926;-88
2023/07/03 10:40:12;;;;;;;;;;;21.10;99.90;;;;;;4965194;28;20004;-88
2023/07/03 10:42:41;;;;;;;;;;;20.50;99.90;;;;;;4932284;28;19981;-88
2023/07/03 10:45:09;;;;;;;;;;;20.80;99.90;;;;;;4935164;28;19915;-88
2023/07/03 10:47:54;;;;;;;;;;;20.70;99.90;;;;;;4948109;28;20000;-87
2023/07/03 10:50:26;;;;;;;;;;;20.80;99.90;;;;;;4933312;28;20704;-87
2023/07/03 10:52:56;;;;;;;;;;;20.90;99.90;;;;;;4923412;28;19942;-87
2023/07/03 10:55:29;;;;;;;;;;;21.10;99.90;;;;;;4954456;28;19918;-87
2023/07/03 10:58:02;;;;;;;;;;;21.10;99.90;;;;;;4933927;28;19930;-87
2023/07/03 11:00:48;;;;;;;;;;;20.70;99.90;;;;;;4948314;28;19965;-87
2023/07/03 11:03:23;;;;;;;;;;;20.40;99.90;;;;;;4930175;28;20017;-86
2023/07/03 11:05:56;;;;;;;;;;;20.40;99.90;;;;;;4942424;29;19915;-86
2023/07/03 11:08:28;;;;;;;;;;;19.70;99.90;;;;;;4969925;28;19930;-86
2023/07/03 11:11:13;;;;;;;;;;;19.90;99.90;;;;;;4960093;28;20039;-87
2023/07/03 11:13:49;;;;;;;;;;;20.00;99.90;;;;;;4990808;28;19965;-88
2023/07/03 11:16:15;;;;;;;;;;;20.10;99.90;;;;;;4959477;28;19914;-88
2023/07/03 11:18:59;;;;;;;;;;;20.10;99.90;;;;;;4959063;28;19914;-88
2023/07/03 11:21:51;;;;;;;;;;;20.30;99.90;;;;;;4942239;28;19918;-89
2023/07/03 11:24:19;;;;;;;;;;;20.40;99.90;;;;;;4959270;28;19914;-87
2023/07/03 11:26:50;;;;;;;;;;;20.40;99.90;;;;;;4951481;28;19918;-87
2023/07/03 11:29:17;;;;;;;;;;;21.30;99.90;;;;;;4958497;28;20273;-87
2023/07/03 11:31:43;;;;;;;;;;;21.60;99.90;;;;;;4950557;29;19910;-88
2023/07/03 11:34:11;;;;;;;;;;;21.70;99.90;;;;;;4955955;28;19918;-87
2023/07/03 11:36:37;;;;;;;;;;;21.70;99.90;;;;;;4924605;29;19938;-87
2023/07/03 11:39:13;;;;;;;;;;;21.90;99.90;;;;;;4942258;28;19985;-88
2023/07/03 11:41:50;;;;;;;;;;;21.60;99.90;;;;;;4961859;28;19920;-87
2023/07/03 11:44:17;;;;;;;;;;;21.30;99.90;;;;;;4955268;28;19918;-87
2023/07/03 11:46:43;;;;;;;;;;;21.50;99.90;;;;;;4930242;29;19926;-87
2023/07/03 11:49:12;;;;;;;;;;;21.10;99.90;;;;;;4945897;28;19915;-87
2023/07/03 11:51:38;;;;;;;;;;;20.90;99.90;;;;;;4952074;28;20361;-88
2023/07/03 11:54:15;;;;;;;;;;;20.80;99.90;;;;;;4933005;28;19922;-88
2023/07/03 11:56:43;;;;;;;;;;;21.10;99.90;;;;;;4954798;28;19914;-88
2023/07/03 11:59:11;;;;;;;;;;;21.70;99.90;;;;;;4945576;28;19915;-88
2023/07/03 12:01:37;;;;;;;;;;;22.40;99.90;;;;;;4946968;28;20366;-88
2023/07/03 12:04:05;;;;;;;;;;;22.60;99.70;;;;;;4932616;28;20042;-87
2023/07/03 12:06:40;;;;;;;;;;;22.80;99.50;;;;;;4944251;28;20652;-88
2023/07/03 12:09:21;;;;;;;;;;;22.70;98.90;;;;;;4945855;28;19926;-88
2023/07/03 12:12:07;;;;;;;;;;;21.80;99.90;;;;;;4941283;29;19914;-88
2023/07/03 12:18:02;;;;;;;;;;;21.60;99.90;;;;;;4961058;28;19941;-86
2023/07/03 12:20:28;;;;;;;;;;;21.90;99.90;;;;;;4938825;28;20366;-87
2023/07/03 12:22:54;;;;;;;;;;;21.90;99.90;;;;;;4951566;28;19914;-86
2023/07/03 12:25:21;;;;;;;;;;;21.70;99.90;;;;;;4944482;28;20342;-88
2023/07/03 12:27:47;;;;;;;;;;;22.10;99.90;;;;;;4927010;29;20326;-86
2023/07/03 12:30:27;;;;;;;;;;;22.50;99.90;;;;;;4927872;28;19917;-88
2023/07/03 12:36:26;;;;;;;;;;;22.00;99.90;;;;;;4976090;28;20289;-87
2023/07/03 12:38:52;;;;;;;;;;;22.60;99.90;;;;;;4972778;28;19914;-87
2023/07/03 12:41:21;;;;;;;;;;;22.30;99.80;;;;;;4943113;28;20663;-87
2023/07/03 12:43:47;;;;;;;;;;;21.40;99.90;;;;;;4923951;28;19925;-86
2023/07/03 12:46:24;;;;;;;;;;;21.00;99.90;;;;;;4947943;28;20422;-88
2023/07/03 12:48:59;;;;;;;;;;;20.40;99.90;;;;;;4923725;29;19915;-86
2023/07/03 12:51:25;;;;;;;;;;;19.90;99.90;;;;;;4953160;28;19919;-88
2023/07/03 12:53:51;;;;;;;;;;;19.70;99.90;;;;;;4931846;29;19982;-86
2023/07/03 12:56:16;;;;;;;;;;;19.20;99.90;;;;;;4949537;28;20293;-87
2023/07/03 12:58:42;;;;;;;;;;;18.70;99.90;;;;;;4930840;28;19915;-88
2023/07/03 13:01:08;;;;;;;;;;;18.50;99.90;;;;;;4951949;28;19918;-88
2023/07/03 13:03:41;;;;;;;;;;;18.80;99.90;;;;;;4947114;28;19921;-87
2023/07/03 13:06:17;;;;;;;;;;;19.20;99.90;;;;;;4963108;28;19915;-87
2023/07/03 13:08:46;;;;;;;;;;;19.90;99.90;;;;;;4945378;29;19954;-87
2023/07/03 13:11:11;;;;;;;;;;;20.60;99.90;;;;;;4935705;28;19914;-87
2023/07/03 13:13:37;;;;;;;;;;;21.20;99.90;;;;;;4930013;29;19925;-87
2023/07/03 13:16:17;;;;;;;;;;;21.10;99.90;;;;;;4951238;28;19917;-87
2023/07/03 13:18:59;;;;;;;;;;;21.40;99.90;;;;;;4964519;28;19921;-87
2023/07/03 13:21:24;;;;;;;;;;;21.70;99.90;;;;;;4947330;29;20586;-87
2023/07/03 13:23:50;;;;;;;;;;;21.70;99.90;;;;;;4941569;29;19914;-87
2023/07/03 13:26:21;;;;;;;;;;;22.50;99.90;;;;;;4936839;28;19937;-86
2023/07/03 13:28:55;;;;;;;;;;;23.00;99.90;;;;;;4942345;28;19914;-86
2023/07/03 13:31:21;;;;;;;;;;;22.10;99.90;;;;;;4952418;28;20959;-86
2023/07/03 13:34:15;;;;;;;;;;;21.50;99.90;;;;;;4937125;29;19919;-87
2023/07/03 13:36:45;;;;;;;;;;;21.10;99.90;;;;;;4946402;28;20001;-87
2023/07/03 13:39:12;;;;;;;;;;;20.70;99.90;;;;;;4939244;28;19914;-88
2023/07/03 13:41:38;;;;;;;;;;;20.20;99.90;;;;;;4961383;28;19964;-87
2023/07/03 13:44:07;;;;;;;;;;;20.00;99.90;;;;;;4936887;28;21191;-89
2023/07/03 13:46:33;;;;;;;;;;;20.00;99.90;;;;;;4972456;28;19918;-89
2023/07/03 13:49:01;;;;;;;;;;;19.90;99.90;;;;;;4945464;28;19918;-87
2023/07/03 13:51:30;;;;;;;;;;;20.10;99.90;;;;;;4954562;28;19982;-89
2023/07/03 13:53:57;;;;;;;;;;;20.20;99.90;;;;;;4940439;28;19932;-89
2023/07/03 13:56:22;;;;;;;;;;;20.10;99.90;;;;;;4937892;28;19973;-85
2023/07/03 13:58:48;;;;;;;;;;;20.00;99.90;;;;;;4961115;28;20001;-88
2023/07/03 14:01:14;;;;;;;;;;;20.00;99.90;;;;;;4959806;28;20321;-83
2023/07/03 14:03:39;;;;;;;;;;;20.00;99.90;;;;;;4958701;28;19918;-83
2023/07/03 14:06:07;;;;;;;;;;;20.00;99.90;;;;;;4977257;28;19953;-88
2023/07/03 14:08:33;;;;;;;;;;;19.80;99.90;;;;;;4961206;28;20016;-89
2023/07/03 14:10:59;;;;;;;;;;;20.10;99.90;;;;;;4940316;29;19969;-88
2023/07/03 14:13:24;;;;;;;;;;;20.40;99.90;;;;;;4945265;28;19973;-88
2023/07/03 14:15:50;;;;;;;;;;;20.80;99.90;;;;;;4957400;28;19961;-89
2023/07/03 14:18:17;;;;;;;;;;;21.40;99.90;;;;;;4956621;28;19928;-88
2023/07/03 14:20:47;;;;;;;;;;;21.40;99.90;;;;;;4961821;28;19918;-89
2023/07/03 14:23:14;;;;;;;;;;;21.60;99.90;;;;;;4939193;28;19928;-89
2023/07/03 14:25:39;;;;;;;;;;;21.80;99.90;;;;;;4939294;28;19919;-87
2023/07/03 14:28:05;;;;;;;;;;;21.60;99.90;;;;;;4942893;28;20345;-87
2023/07/03 14:30:31;;;;;;;;;;;21.20;99.90;;;;;;4941413;28;19953;-89
2023/07/03 14:32:56;;;;;;;;;;;21.00;99.90;;;;;;4933059;28;19970;-88
2023/07/03 14:35:23;;;;;;;;;;;21.00;99.90;;;;;;4962896;28;20354;-87
2023/07/03 14:37:48;;;;;;;;;;;20.80;99.90;;;;;;4962241;28;20426;-87
2023/07/03 14:40:14;;;;;;;;;;;21.10;99.90;;;;;;4960745;28;19965;-86
2023/07/03 14:42:39;;;;;;;;;;;21.50;99.90;;;;;;4978128;28;20259;-88
2023/07/03 14:45:05;;;;;;;;;;;21.80;99.90;;;;;;4943152;28;19922;-87